Everhartville, Pennsylvania
Current Conditions -  °F | °C
As of 5:11 AM on Thursday 23 Oct 2014 (Local Time) from KCXY Reporting Station
Overcast Overcast  
Wind Chill: 12°   Ceiling: 3000
Heat Index: 12°   Visibility: 10mi
Dew Point:   Wind: 10mph
Humidity: 64%   Direction: 330°NNW
Pressure: 29.88"   Gusts: NA
Location:  40.4932°N, 77.217°W
Report Text: KCXY 230911Z AUTO 33009KT 10SM OVC030 12/06 A2988 RMK AO2 T01220056
Loading
Personal Weather Stations






























Interactive Weather Map
Tropical Storm Tracking
New forecast layout! Learn more

10-Day Weather Forecast

Advertisements
Track Severe Weather on mobile